sensor_id;sensor_type;location;lat;lon;timestamp;P1;durP1;ratioP1;P2;durP2;ratioP2
37903;SDS011;23738;50.422;18.758;2024-02-16T00:02:11;55.60;;;31.30;;
37903;SDS011;23738;50.422;18.758;2024-02-16T00:05:41;54.10;;;27.10;;
37903;SDS011;23738;50.422;18.758;2024-02-16T00:09:14;50.90;;;27.80;;
37903;SDS011;23738;50.422;18.758;2024-02-16T00:12:56;54.20;;;28.10;;
37903;SDS011;23738;50.422;18.758;2024-02-16T00:16:39;55.90;;;30.40;;
37903;SDS011;23738;50.422;18.758;2024-02-16T00:20:07;54.30;;;29.40;;
37903;SDS011;23738;50.422;18.758;2024-02-16T00:23:34;53.90;;;29.50;;
37903;SDS011;23738;50.422;18.758;2024-02-16T00:27:19;48.50;;;25.50;;
37903;SDS011;23738;50.422;18.758;2024-02-16T00:30:46;49.50;;;26.30;;
37903;SDS011;23738;50.422;18.758;2024-02-16T00:34:13;52.40;;;28.10;;
37903;SDS011;23738;50.422;18.758;2024-02-16T00:37:40;59.40;;;32.00;;
37903;SDS011;23738;50.422;18.758;2024-02-16T00:41:18;48.80;;;26.10;;
37903;SDS011;23738;50.422;18.758;2024-02-16T00:44:56;47.80;;;25.70;;
37903;SDS011;23738;50.422;18.758;2024-02-16T00:48:32;47.20;;;26.00;;
37903;SDS011;23738;50.422;18.758;2024-02-16T00:51:59;42.20;;;24.70;;
37903;SDS011;23738;50.422;18.758;2024-02-16T00:55:26;43.40;;;25.30;;
37903;SDS011;23738;50.422;18.758;2024-02-16T00:59:02;44.30;;;22.60;;
37903;SDS011;23738;50.422;18.758;2024-02-16T01:02:30;47.80;;;23.80;;
37903;SDS011;23738;50.422;18.758;2024-02-16T01:06:00;40.00;;;22.00;;
37903;SDS011;23738;50.422;18.758;2024-02-16T01:09:29;38.30;;;22.30;;
37903;SDS011;23738;50.422;18.758;2024-02-16T01:12:59;45.40;;;24.10;;
37903;SDS011;23738;50.422;18.758;2024-02-16T01:16:28;42.50;;;21.50;;
37903;SDS011;23738;50.422;18.758;2024-02-16T01:19:55;38.20;;;20.10;;
37903;SDS011;23738;50.422;18.758;2024-02-16T01:23:22;35.70;;;19.00;;
37903;SDS011;23738;50.422;18.758;2024-02-16T01:26:49;31.50;;;19.10;;
37903;SDS011;23738;50.422;18.758;2024-02-16T01:30:19;34.10;;;20.40;;
37903;SDS011;23738;50.422;18.758;2024-02-16T01:33:48;29.00;;;18.00;;
37903;SDS011;23738;50.422;18.758;2024-02-16T01:40:34;31.20;;;17.20;;
37903;SDS011;23738;50.422;18.758;2024-02-16T01:44:11;29.20;;;17.00;;
37903;SDS011;23738;50.422;18.758;2024-02-16T01:47:49;26.80;;;18.10;;
37903;SDS011;23738;50.422;18.758;2024-02-16T01:51:26;19.20;;;13.50;;
37903;SDS011;23738;50.422;18.758;2024-02-16T01:54:54;31.30;;;14.10;;
37903;SDS011;23738;50.422;18.758;2024-02-16T01:58:21;17.90;;;12.20;;
37903;SDS011;23738;50.422;18.758;2024-02-16T02:05:13;21.10;;;13.40;;
37903;SDS011;23738;50.422;18.758;2024-02-16T02:08:43;20.30;;;12.20;;
37903;SDS011;23738;50.422;18.758;2024-02-16T02:12:10;16.40;;;11.90;;
37903;SDS011;23738;50.422;18.758;2024-02-16T02:15:40;19.60;;;10.90;;
37903;SDS011;23738;50.422;18.758;2024-02-16T02:19:09;18.80;;;12.50;;
37903;SDS011;23738;50.422;18.758;2024-02-16T02:22:36;16.10;;;11.70;;
37903;SDS011;23738;50.422;18.758;2024-02-16T02:26:07;16.60;;;9.70;;
37903;SDS011;23738;50.422;18.758;2024-02-16T02:29:37;13.60;;;10.20;;
37903;SDS011;23738;50.422;18.758;2024-02-16T02:33:04;19.80;;;10.60;;
37903;SDS011;23738;50.422;18.758;2024-02-16T02:36:31;14.30;;;10.20;;
37903;SDS011;23738;50.422;18.758;2024-02-16T02:39:58;12.80;;;10.00;;
37903;SDS011;23738;50.422;18.758;2024-02-16T02:43:27;11.20;;;8.90;;
37903;SDS011;23738;50.422;18.758;2024-02-16T02:46:56;15.70;;;9.60;;
37903;SDS011;23738;50.422;18.758;2024-02-16T02:50:26;11.00;;;9.00;;
37903;SDS011;23738;50.422;18.758;2024-02-16T02:53:56;15.20;;;9.40;;
37903;SDS011;23738;50.422;18.758;2024-02-16T02:57:26;12.70;;;9.90;;
37903;SDS011;23738;50.422;18.758;2024-02-16T03:00:55;16.80;;;9.50;;
37903;SDS011;23738;50.422;18.758;2024-02-16T03:04:27;9.30;;;8.10;;
37903;SDS011;23738;50.422;18.758;2024-02-16T03:08:06;11.90;;;9.50;;
37903;SDS011;23738;50.422;18.758;2024-02-16T03:11:33;13.60;;;10.60;;
37903;SDS011;23738;50.422;18.758;2024-02-16T03:15:00;12.90;;;10.80;;
37903;SDS011;23738;50.422;18.758;2024-02-16T03:18:30;12.40;;;8.50;;
37903;SDS011;23738;50.422;18.758;2024-02-16T03:21:59;13.90;;;10.30;;
37903;SDS011;23738;50.422;18.758;2024-02-16T03:25:26;13.70;;;10.80;;
37903;SDS011;23738;50.422;18.758;2024-02-16T03:29:06;17.40;;;11.50;;
37903;SDS011;23738;50.422;18.758;2024-02-16T03:32:49;14.80;;;11.30;;
37903;SDS011;23738;50.422;18.758;2024-02-16T03:36:19;15.00;;;10.60;;
37903;SDS011;23738;50.422;18.758;2024-02-16T03:39:46;18.00;;;12.40;;
37903;SDS011;23738;50.422;18.758;2024-02-16T03:43:13;13.90;;;10.70;;
37903;SDS011;23738;50.422;18.758;2024-02-16T03:46:41;16.70;;;13.00;;
37903;SDS011;23738;50.422;18.758;2024-02-16T03:50:06;19.40;;;12.80;;
37903;SDS011;23738;50.422;18.758;2024-02-16T03:53:35;17.50;;;11.20;;
37903;SDS011;23738;50.422;18.758;2024-02-16T03:57:05;21.80;;;13.50;;
37903;SDS011;23738;50.422;18.758;2024-02-16T04:00:34;20.90;;;14.20;;
37903;SDS011;23738;50.422;18.758;2024-02-16T04:04:04;22.10;;;14.00;;
37903;SDS011;23738;50.422;18.758;2024-02-16T04:07:34;19.90;;;15.10;;
37903;SDS011;23738;50.422;18.758;2024-02-16T04:11:03;23.60;;;15.40;;
37903;SDS011;23738;50.422;18.758;2024-02-16T04:14:32;28.30;;;18.80;;
37903;SDS011;23738;50.422;18.758;2024-02-16T04:18:02;24.40;;;17.40;;
37903;SDS011;23738;50.422;18.758;2024-02-16T04:21:31;32.70;;;20.40;;
37903;SDS011;23738;50.422;18.758;2024-02-16T04:25:01;53.50;;;27.50;;
37903;SDS011;23738;50.422;18.758;2024-02-16T04:28:30;43.60;;;24.30;;
37903;SDS011;23738;50.422;18.758;2024-02-16T04:32:10;63.10;;;32.90;;
37903;SDS011;23738;50.422;18.758;2024-02-16T04:35:45;59.70;;;31.50;;
37903;SDS011;23738;50.422;18.758;2024-02-16T04:39:26;43.90;;;24.60;;
37903;SDS011;23738;50.422;18.758;2024-02-16T04:42:55;40.80;;;24.00;;
37903;SDS011;23738;50.422;18.758;2024-02-16T04:46:25;42.50;;;24.10;;
37903;SDS011;23738;50.422;18.758;2024-02-16T04:49:52;30.70;;;19.90;;
37903;SDS011;23738;50.422;18.758;2024-02-16T04:53:19;35.80;;;20.80;;
37903;SDS011;23738;50.422;18.758;2024-02-16T04:57:01;51.30;;;28.40;;
37903;SDS011;23738;50.422;18.758;2024-02-16T05:00:28;86.60;;;36.90;;
37903;SDS011;23738;50.422;18.758;2024-02-16T05:03:55;68.10;;;32.20;;
37903;SDS011;23738;50.422;18.758;2024-02-16T05:07:22;95.20;;;40.00;;
37903;SDS011;23738;50.422;18.758;2024-02-16T05:10:56;93.30;;;35.80;;
37903;SDS011;23738;50.422;18.758;2024-02-16T05:14:23;62.30;;;29.10;;
37903;SDS011;23738;50.422;18.758;2024-02-16T05:17:50;68.70;;;33.00;;
37903;SDS011;23738;50.422;18.758;2024-02-16T05:21:19;57.00;;;30.90;;
37903;SDS011;23738;50.422;18.758;2024-02-16T05:24:56;50.00;;;27.60;;
37903;SDS011;23738;50.422;18.758;2024-02-16T05:28:23;41.50;;;23.90;;
37903;SDS011;23738;50.422;18.758;2024-02-16T05:31:52;44.10;;;24.70;;
37903;SDS011;23738;50.422;18.758;2024-02-16T05:35:27;43.90;;;25.30;;
37903;SDS011;23738;50.422;18.758;2024-02-16T05:38:57;44.20;;;25.50;;
37903;SDS011;23738;50.422;18.758;2024-02-16T05:42:26;46.00;;;26.20;;
37903;SDS011;23738;50.422;18.758;2024-02-16T05:45:55;45.00;;;24.40;;
37903;SDS011;23738;50.422;18.758;2024-02-16T05:49:25;44.50;;;22.10;;
37903;SDS011;23738;50.422;18.758;2024-02-16T05:52:52;33.80;;;21.80;;
37903;SDS011;23738;50.422;18.758;2024-02-16T05:56:18;47.30;;;24.10;;
37903;SDS011;23738;50.422;18.758;2024-02-16T05:59:50;45.50;;;24.70;;
37903;SDS011;23738;50.422;18.758;2024-02-16T06:03:20;61.20;;;30.40;;
37903;SDS011;23738;50.422;18.758;2024-02-16T06:06:49;69.00;;;34.60;;
37903;SDS011;23738;50.422;18.758;2024-02-16T06:10:19;70.40;;;33.70;;
37903;SDS011;23738;50.422;18.758;2024-02-16T06:13:48;46.70;;;26.30;;
37903;SDS011;23738;50.422;18.758;2024-02-16T06:17:18;56.60;;;28.50;;
37903;SDS011;23738;50.422;18.758;2024-02-16T06:20:47;65.40;;;33.60;;
37903;SDS011;23738;50.422;18.758;2024-02-16T06:24:16;62.50;;;31.60;;
37903;SDS011;23738;50.422;18.758;2024-02-16T06:27:46;63.80;;;31.80;;
37903;SDS011;23738;50.422;18.758;2024-02-16T06:31:13;63.00;;;29.20;;
37903;SDS011;23738;50.422;18.758;2024-02-16T06:34:40;70.20;;;33.70;;
37903;SDS011;23738;50.422;18.758;2024-02-16T06:38:07;53.90;;;29.70;;
37903;SDS011;23738;50.422;18.758;2024-02-16T06:41:34;76.30;;;38.10;;
37903;SDS011;23738;50.422;18.758;2024-02-16T06:45:19;77.90;;;39.90;;
37903;SDS011;23738;50.422;18.758;2024-02-16T06:48:46;76.00;;;35.70;;
37903;SDS011;23738;50.422;18.758;2024-02-16T06:52:13;69.90;;;33.90;;
37903;SDS011;23738;50.422;18.758;2024-02-16T06:55:56;82.30;;;39.10;;
37903;SDS011;23738;50.422;18.758;2024-02-16T06:59:23;82.40;;;42.20;;
37903;SDS011;23738;50.422;18.758;2024-02-16T07:02:59;80.20;;;41.10;;
37903;SDS011;23738;50.422;18.758;2024-02-16T07:06:28;65.20;;;33.70;;
37903;SDS011;23738;50.422;18.758;2024-02-16T07:09:55;78.90;;;30.50;;
37903;SDS011;23738;50.422;18.758;2024-02-16T07:13:22;62.30;;;33.10;;
37903;SDS011;23738;50.422;18.758;2024-02-16T07:16:58;62.30;;;36.20;;
37903;SDS011;23738;50.422;18.758;2024-02-16T07:20:33;64.10;;;36.00;;
37903;SDS011;23738;50.422;18.758;2024-02-16T07:24:03;59.70;;;31.90;;
37903;SDS011;23738;50.422;18.758;2024-02-16T07:27:32;55.90;;;30.00;;
37903;SDS011;23738;50.422;18.758;2024-02-16T07:31:11;58.30;;;31.70;;
37903;SDS011;23738;50.422;18.758;2024-02-16T07:34:36;54.50;;;30.50;;
37903;SDS011;23738;50.422;18.758;2024-02-16T07:38:05;55.80;;;30.40;;
37903;SDS011;23738;50.422;18.758;2024-02-16T07:41:33;44.20;;;25.60;;
37903;SDS011;23738;50.422;18.758;2024-02-16T07:45:00;47.00;;;25.60;;
37903;SDS011;23738;50.422;18.758;2024-02-16T07:48:30;44.30;;;26.10;;
37903;SDS011;23738;50.422;18.758;2024-02-16T07:52:17;53.50;;;28.80;;
37903;SDS011;23738;50.422;18.758;2024-02-16T07:55:47;55.40;;;28.90;;
37903;SDS011;23738;50.422;18.758;2024-02-16T07:59:17;34.00;;;21.50;;
37903;SDS011;23738;50.422;18.758;2024-02-16T08:02:44;30.10;;;19.40;;
37903;SDS011;23738;50.422;18.758;2024-02-16T08:06:13;32.70;;;21.40;;
37903;SDS011;23738;50.422;18.758;2024-02-16T08:09:44;36.70;;;21.20;;
37903;SDS011;23738;50.422;18.758;2024-02-16T08:13:17;35.60;;;20.80;;
37903;SDS011;23738;50.422;18.758;2024-02-16T08:16:47;29.30;;;17.80;;
37903;SDS011;23738;50.422;18.758;2024-02-16T08:20:16;24.40;;;17.20;;
37903;SDS011;23738;50.422;18.758;2024-02-16T08:23:45;36.80;;;20.70;;
37903;SDS011;23738;50.422;18.758;2024-02-16T08:27:15;31.00;;;19.70;;
37903;SDS011;23738;50.422;18.758;2024-02-16T08:30:50;34.30;;;20.20;;
37903;SDS011;23738;50.422;18.758;2024-02-16T08:33:44;31.30;;;17.70;;
37903;SDS011;23738;50.422;18.758;2024-02-16T08:36:54;26.80;;;16.50;;
37903;SDS011;23738;50.422;18.758;2024-02-16T08:40:23;27.70;;;19.50;;
37903;SDS011;23738;50.422;18.758;2024-02-16T08:43:53;29.00;;;19.30;;
37903;SDS011;23738;50.422;18.758;2024-02-16T08:47:22;28.60;;;19.20;;
37903;SDS011;23738;50.422;18.758;2024-02-16T08:50:51;34.40;;;18.10;;
37903;SDS011;23738;50.422;18.758;2024-02-16T08:54:21;28.00;;;17.50;;
37903;SDS011;23738;50.422;18.758;2024-02-16T08:57:51;29.00;;;18.70;;
37903;SDS011;23738;50.422;18.758;2024-02-16T09:01:18;25.70;;;16.30;;
37903;SDS011;23738;50.422;18.758;2024-02-16T09:04:46;23.90;;;14.60;;
37903;SDS011;23738;50.422;18.758;2024-02-16T09:08:16;21.60;;;14.60;;
37903;SDS011;23738;50.422;18.758;2024-02-16T09:11:43;18.50;;;12.40;;
37903;SDS011;23738;50.422;18.758;2024-02-16T09:15:19;23.10;;;13.50;;
37903;SDS011;23738;50.422;18.758;2024-02-16T09:18:46;16.40;;;12.50;;
37903;SDS011;23738;50.422;18.758;2024-02-16T09:22:13;17.70;;;11.80;;
37903;SDS011;23738;50.422;18.758;2024-02-16T09:26:01;16.40;;;12.10;;
37903;SDS011;23738;50.422;18.758;2024-02-16T09:29:42;13.40;;;10.20;;
37903;SDS011;23738;50.422;18.758;2024-02-16T09:32:53;13.50;;;10.60;;
37903;SDS011;23738;50.422;18.758;2024-02-16T09:35:22;14.90;;;10.90;;
37903;SDS011;23738;50.422;18.758;2024-02-16T09:37:52;17.60;;;10.80;;
37903;SDS011;23738;50.422;18.758;2024-02-16T09:40:22;15.00;;;11.10;;
37903;SDS011;23738;50.422;18.758;2024-02-16T09:42:53;14.20;;;11.40;;
37903;SDS011;23738;50.422;18.758;2024-02-16T09:45:22;14.90;;;11.40;;
37903;SDS011;23738;50.422;18.758;2024-02-16T09:47:53;13.50;;;10.00;;
37903;SDS011;23738;50.422;18.758;2024-02-16T09:50:25;12.40;;;7.90;;
37903;SDS011;23738;50.422;18.758;2024-02-16T09:52:54;10.50;;;8.50;;
37903;SDS011;23738;50.422;18.758;2024-02-16T09:56:26;17.30;;;9.00;;
37903;SDS011;23738;50.422;18.758;2024-02-16T09:59:16;13.80;;;8.60;;
37903;SDS011;23738;50.422;18.758;2024-02-16T10:01:45;11.40;;;9.20;;
37903;SDS011;23738;50.422;18.758;2024-02-16T10:04:15;11.80;;;8.40;;
37903;SDS011;23738;50.422;18.758;2024-02-16T10:06:48;11.50;;;9.10;;
37903;SDS011;23738;50.422;18.758;2024-02-16T10:09:25;10.20;;;9.00;;
37903;SDS011;23738;50.422;18.758;2024-02-16T10:11:56;12.00;;;9.30;;
37903;SDS011;23738;50.422;18.758;2024-02-16T10:14:26;10.20;;;8.60;;
37903;SDS011;23738;50.422;18.758;2024-02-16T10:17:02;10.80;;;9.60;;
37903;SDS011;23738;50.422;18.758;2024-02-16T10:19:33;10.30;;;8.10;;
37903;SDS011;23738;50.422;18.758;2024-02-16T10:22:07;10.70;;;7.40;;
37903;SDS011;23738;50.422;18.758;2024-02-16T10:24:37;9.20;;;7.80;;
37903;SDS011;23738;50.422;18.758;2024-02-16T10:27:14;11.50;;;7.30;;
37903;SDS011;23738;50.422;18.758;2024-02-16T10:29:44;9.10;;;6.70;;
37903;SDS011;23738;50.422;18.758;2024-02-16T10:32:17;8.60;;;5.70;;
37903;SDS011;23738;50.422;18.758;2024-02-16T10:34:48;9.00;;;6.60;;
37903;SDS011;23738;50.422;18.758;2024-02-16T10:37:20;5.90;;;5.30;;
37903;SDS011;23738;50.422;18.758;2024-02-16T10:39:50;10.60;;;5.40;;
37903;SDS011;23738;50.422;18.758;2024-02-16T10:42:22;8.10;;;5.60;;
37903;SDS011;23738;50.422;18.758;2024-02-16T10:45:02;7.60;;;6.60;;
37903;SDS011;23738;50.422;18.758;2024-02-16T10:48:31;7.30;;;5.90;;
37903;SDS011;23738;50.422;18.758;2024-02-16T10:51:56;9.80;;;6.10;;
37903;SDS011;23738;50.422;18.758;2024-02-16T10:55:25;10.20;;;6.20;;
37903;SDS011;23738;50.422;18.758;2024-02-16T10:58:55;10.30;;;7.30;;
37903;SDS011;23738;50.422;18.758;2024-02-16T11:02:24;8.70;;;6.80;;
37903;SDS011;23738;50.422;18.758;2024-02-16T11:06:00;8.30;;;7.10;;
37903;SDS011;23738;50.422;18.758;2024-02-16T11:09:30;8.20;;;7.30;;
37903;SDS011;23738;50.422;18.758;2024-02-16T11:13:01;8.80;;;7.10;;
37903;SDS011;23738;50.422;18.758;2024-02-16T11:16:31;7.90;;;6.20;;
37903;SDS011;23738;50.422;18.758;2024-02-16T11:20:00;6.70;;;5.80;;
37903;SDS011;23738;50.422;18.758;2024-02-16T11:23:30;6.30;;;5.20;;
37903;SDS011;23738;50.422;18.758;2024-02-16T11:27:00;7.30;;;5.90;;
37903;SDS011;23738;50.422;18.758;2024-02-16T11:30:26;8.20;;;5.70;;
37903;SDS011;23738;50.422;18.758;2024-02-16T11:33:56;8.70;;;6.20;;
37903;SDS011;23738;50.422;18.758;2024-02-16T11:37:30;7.50;;;5.50;;
37903;SDS011;23738;50.422;18.758;2024-02-16T11:41:00;6.60;;;5.10;;
37903;SDS011;23738;50.422;18.758;2024-02-16T11:44:26;7.40;;;4.80;;
37903;SDS011;23738;50.422;18.758;2024-02-16T11:48:07;6.70;;;4.10;;
37903;SDS011;23738;50.422;18.758;2024-02-16T11:51:35;5.50;;;4.00;;
37903;SDS011;23738;50.422;18.758;2024-02-16T11:55:00;10.70;;;4.10;;
37903;SDS011;23738;50.422;18.758;2024-02-16T11:58:41;6.80;;;4.30;;
37903;SDS011;23738;50.422;18.758;2024-02-16T12:01:33;7.40;;;4.40;;
37903;SDS011;23738;50.422;18.758;2024-02-16T12:04:03;6.00;;;4.40;;
37903;SDS011;23738;50.422;18.758;2024-02-16T12:06:33;6.00;;;4.40;;
37903;SDS011;23738;50.422;18.758;2024-02-16T12:09:03;8.10;;;5.20;;
37903;SDS011;23738;50.422;18.758;2024-02-16T12:11:35;7.40;;;4.20;;
37903;SDS011;23738;50.422;18.758;2024-02-16T12:14:45;6.30;;;3.60;;
37903;SDS011;23738;50.422;18.758;2024-02-16T12:18:19;6.40;;;4.70;;
37903;SDS011;23738;50.422;18.758;2024-02-16T12:21:49;6.40;;;4.10;;
37903;SDS011;23738;50.422;18.758;2024-02-16T12:25:19;6.60;;;3.70;;
37903;SDS011;23738;50.422;18.758;2024-02-16T12:28:48;9.40;;;5.80;;
37903;SDS011;23738;50.422;18.758;2024-02-16T12:32:15;7.70;;;5.20;;
37903;SDS011;23738;50.422;18.758;2024-02-16T12:34:46;7.50;;;6.10;;
37903;SDS011;23738;50.422;18.758;2024-02-16T12:37:16;6.20;;;5.30;;
37903;SDS011;23738;50.422;18.758;2024-02-16T12:39:46;8.10;;;4.50;;
37903;SDS011;23738;50.422;18.758;2024-02-16T12:42:16;7.90;;;4.40;;
37903;SDS011;23738;50.422;18.758;2024-02-16T12:45:43;5.30;;;4.60;;
37903;SDS011;23738;50.422;18.758;2024-02-16T12:49:10;6.20;;;4.20;;
37903;SDS011;23738;50.422;18.758;2024-02-16T12:52:37;6.90;;;4.20;;
37903;SDS011;23738;50.422;18.758;2024-02-16T12:56:07;6.60;;;4.00;;
37903;SDS011;23738;50.422;18.758;2024-02-16T12:59:36;5.20;;;3.60;;
37903;SDS011;23738;50.422;18.758;2024-02-16T13:02:46;5.40;;;3.10;;
37903;SDS011;23738;50.422;18.758;2024-02-16T13:05:16;4.10;;;3.10;;
37903;SDS011;23738;50.422;18.758;2024-02-16T13:09:00;5.00;;;3.50;;
37903;SDS011;23738;50.422;18.758;2024-02-16T13:12:27;7.30;;;3.80;;
37903;SDS011;23738;50.422;18.758;2024-02-16T13:15:54;5.50;;;3.50;;
37903;SDS011;23738;50.422;18.758;2024-02-16T13:19:23;6.60;;;4.50;;
37903;SDS011;23738;50.422;18.758;2024-02-16T13:22:54;8.80;;;4.50;;
37903;SDS011;23738;50.422;18.758;2024-02-16T13:26:23;7.70;;;4.10;;
37903;SDS011;23738;50.422;18.758;2024-02-16T13:29:50;6.00;;;4.00;;
37903;SDS011;23738;50.422;18.758;2024-02-16T13:33:20;7.90;;;4.30;;
37903;SDS011;23738;50.422;18.758;2024-02-16T13:36:50;5.80;;;4.40;;
37903;SDS011;23738;50.422;18.758;2024-02-16T13:40:19;5.00;;;4.30;;
37903;SDS011;23738;50.422;18.758;2024-02-16T13:43:46;10.00;;;5.30;;
37903;SDS011;23738;50.422;18.758;2024-02-16T13:47:13;7.00;;;4.50;;
37903;SDS011;23738;50.422;18.758;2024-02-16T13:50:58;9.10;;;4.20;;
37903;SDS011;23738;50.422;18.758;2024-02-16T13:54:07;7.20;;;4.40;;
37903;SDS011;23738;50.422;18.758;2024-02-16T13:57:34;5.40;;;4.40;;
37903;SDS011;23738;50.422;18.758;2024-02-16T14:01:09;7.40;;;4.30;;
37903;SDS011;23738;50.422;18.758;2024-02-16T14:04:40;4.70;;;4.20;;
37903;SDS011;23738;50.422;18.758;2024-02-16T14:08:14;5.80;;;4.00;;
37903;SDS011;23738;50.422;18.758;2024-02-16T14:10:43;6.70;;;4.50;;
37903;SDS011;23738;50.422;18.758;2024-02-16T14:13:13;5.30;;;3.70;;
37903;SDS011;23738;50.422;18.758;2024-02-16T14:16:39;5.30;;;3.90;;
37903;SDS011;23738;50.422;18.758;2024-02-16T14:20:09;5.40;;;4.00;;
37903;SDS011;23738;50.422;18.758;2024-02-16T14:23:57;5.00;;;3.80;;
37903;SDS011;23738;50.422;18.758;2024-02-16T14:27:40;7.70;;;4.30;;
37903;SDS011;23738;50.422;18.758;2024-02-16T14:31:25;7.20;;;3.70;;
37903;SDS011;23738;50.422;18.758;2024-02-16T14:34:54;5.10;;;3.40;;
37903;SDS011;23738;50.422;18.758;2024-02-16T14:38:21;5.60;;;3.80;;
37903;SDS011;23738;50.422;18.758;2024-02-16T14:41:11;10.50;;;4.20;;
37903;SDS011;23738;50.422;18.758;2024-02-16T14:43:43;8.60;;;5.40;;
37903;SDS011;23738;50.422;18.758;2024-02-16T14:46:13;20.00;;;11.80;;
37903;SDS011;23738;50.422;18.758;2024-02-16T14:48:43;22.60;;;12.40;;
37903;SDS011;23738;50.422;18.758;2024-02-16T14:51:14;44.00;;;19.00;;
37903;SDS011;23738;50.422;18.758;2024-02-16T14:53:44;23.90;;;10.50;;
37903;SDS011;23738;50.422;18.758;2024-02-16T14:56:14;11.10;;;7.60;;
37903;SDS011;23738;50.422;18.758;2024-02-16T14:58:48;10.50;;;6.00;;
37903;SDS011;23738;50.422;18.758;2024-02-16T15:01:17;8.60;;;5.70;;
37903;SDS011;23738;50.422;18.758;2024-02-16T15:03:47;8.40;;;5.20;;
37903;SDS011;23738;50.422;18.758;2024-02-16T15:06:17;7.40;;;5.40;;
37903;SDS011;23738;50.422;18.758;2024-02-16T15:08:47;6.70;;;5.50;;
37903;SDS011;23738;50.422;18.758;2024-02-16T15:11:18;8.10;;;4.70;;
37903;SDS011;23738;50.422;18.758;2024-02-16T15:13:48;7.20;;;4.60;;
37903;SDS011;23738;50.422;18.758;2024-02-16T15:16:18;7.10;;;6.00;;
37903;SDS011;23738;50.422;18.758;2024-02-16T15:18:48;8.50;;;5.10;;
37903;SDS011;23738;50.422;18.758;2024-02-16T15:21:17;7.00;;;5.40;;
37903;SDS011;23738;50.422;18.758;2024-02-16T15:23:47;7.00;;;5.10;;
37903;SDS011;23738;50.422;18.758;2024-02-16T15:27:14;10.60;;;6.70;;
37903;SDS011;23738;50.422;18.758;2024-02-16T15:30:58;9.80;;;6.10;;
37903;SDS011;23738;50.422;18.758;2024-02-16T15:33:28;8.40;;;6.80;;
37903;SDS011;23738;50.422;18.758;2024-02-16T15:35:58;10.40;;;6.20;;
37903;SDS011;23738;50.422;18.758;2024-02-16T15:38:27;7.40;;;6.00;;
37903;SDS011;23738;50.422;18.758;2024-02-16T15:40:57;8.40;;;6.20;;
37903;SDS011;23738;50.422;18.758;2024-02-16T15:43:26;9.70;;;6.10;;
37903;SDS011;23738;50.422;18.758;2024-02-16T15:45:56;7.60;;;6.50;;
37903;SDS011;23738;50.422;18.758;2024-02-16T15:48:26;8.50;;;6.10;;
37903;SDS011;23738;50.422;18.758;2024-02-16T15:50:55;12.90;;;6.10;;
37903;SDS011;23738;50.422;18.758;2024-02-16T15:53:26;9.50;;;6.70;;
37903;SDS011;23738;50.422;18.758;2024-02-16T15:56:10;10.20;;;6.80;;
37903;SDS011;23738;50.422;18.758;2024-02-16T15:58:40;9.00;;;7.00;;
37903;SDS011;23738;50.422;18.758;2024-02-16T16:01:10;9.30;;;8.00;;
37903;SDS011;23738;50.422;18.758;2024-02-16T16:03:40;9.30;;;7.30;;
37903;SDS011;23738;50.422;18.758;2024-02-16T16:06:10;12.70;;;7.70;;
37903;SDS011;23738;50.422;18.758;2024-02-16T16:08:40;10.80;;;7.30;;
37903;SDS011;23738;50.422;18.758;2024-02-16T16:11:11;12.40;;;7.90;;
37903;SDS011;23738;50.422;18.758;2024-02-16T16:13:41;9.60;;;7.90;;
37903;SDS011;23738;50.422;18.758;2024-02-16T16:16:11;11.10;;;9.10;;
37903;SDS011;23738;50.422;18.758;2024-02-16T16:18:40;13.20;;;7.80;;
37903;SDS011;23738;50.422;18.758;2024-02-16T16:21:11;9.20;;;7.50;;
37903;SDS011;23738;50.422;18.758;2024-02-16T16:23:41;9.20;;;7.50;;
37903;SDS011;23738;50.422;18.758;2024-02-16T16:26:10;12.50;;;8.90;;
37903;SDS011;23738;50.422;18.758;2024-02-16T16:28:40;12.10;;;9.20;;
37903;SDS011;23738;50.422;18.758;2024-02-16T16:31:10;13.10;;;9.80;;
37903;SDS011;23738;50.422;18.758;2024-02-16T16:33:39;13.20;;;9.90;;
37903;SDS011;23738;50.422;18.758;2024-02-16T16:36:09;14.20;;;9.20;;
37903;SDS011;23738;50.422;18.758;2024-02-16T16:38:40;13.00;;;9.30;;
37903;SDS011;23738;50.422;18.758;2024-02-16T16:41:10;13.80;;;9.70;;
37903;SDS011;23738;50.422;18.758;2024-02-16T16:43:40;15.70;;;11.10;;
37903;SDS011;23738;50.422;18.758;2024-02-16T16:46:11;23.20;;;13.20;;
37903;SDS011;23738;50.422;18.758;2024-02-16T16:48:41;14.80;;;10.10;;
37903;SDS011;23738;50.422;18.758;2024-02-16T16:51:10;17.30;;;10.90;;
37903;SDS011;23738;50.422;18.758;2024-02-16T16:53:40;29.10;;;15.90;;
37903;SDS011;23738;50.422;18.758;2024-02-16T16:56:10;25.60;;;14.90;;
37903;SDS011;23738;50.422;18.758;2024-02-16T16:58:39;25.10;;;13.00;;
37903;SDS011;23738;50.422;18.758;2024-02-16T17:01:11;20.50;;;10.20;;
37903;SDS011;23738;50.422;18.758;2024-02-16T17:03:42;21.10;;;9.90;;
37903;SDS011;23738;50.422;18.758;2024-02-16T17:06:12;25.10;;;11.60;;
37903;SDS011;23738;50.422;18.758;2024-02-16T17:08:41;19.30;;;11.00;;
37903;SDS011;23738;50.422;18.758;2024-02-16T17:11:11;20.30;;;11.90;;
37903;SDS011;23738;50.422;18.758;2024-02-16T17:13:40;20.30;;;12.30;;
37903;SDS011;23738;50.422;18.758;2024-02-16T17:16:10;26.30;;;14.20;;
37903;SDS011;23738;50.422;18.758;2024-02-16T17:18:40;22.20;;;14.30;;
37903;SDS011;23738;50.422;18.758;2024-02-16T17:21:09;22.60;;;14.10;;
37903;SDS011;23738;50.422;18.758;2024-02-16T17:23:40;23.90;;;14.90;;
37903;SDS011;23738;50.422;18.758;2024-02-16T17:26:10;37.40;;;15.90;;
37903;SDS011;23738;50.422;18.758;2024-02-16T17:28:39;26.60;;;15.50;;
37903;SDS011;23738;50.422;18.758;2024-02-16T17:31:09;31.50;;;15.90;;
37903;SDS011;23738;50.422;18.758;2024-02-16T17:33:39;30.60;;;15.70;;
37903;SDS011;23738;50.422;18.758;2024-02-16T17:36:09;28.20;;;15.30;;
37903;SDS011;23738;50.422;18.758;2024-02-16T17:38:40;33.60;;;19.30;;
37903;SDS011;23738;50.422;18.758;2024-02-16T17:41:09;32.80;;;18.50;;
37903;SDS011;23738;50.422;18.758;2024-02-16T17:43:39;27.90;;;17.70;;
37903;SDS011;23738;50.422;18.758;2024-02-16T17:46:11;39.80;;;18.90;;
37903;SDS011;23738;50.422;18.758;2024-02-16T17:48:42;32.30;;;19.00;;
37903;SDS011;23738;50.422;18.758;2024-02-16T17:51:11;36.70;;;18.50;;
37903;SDS011;23738;50.422;18.758;2024-02-16T17:53:41;42.90;;;21.50;;
37903;SDS011;23738;50.422;18.758;2024-02-16T17:56:11;50.20;;;22.90;;
37903;SDS011;23738;50.422;18.758;2024-02-16T17:58:40;70.00;;;27.40;;
37903;SDS011;23738;50.422;18.758;2024-02-16T18:01:10;71.20;;;29.70;;
37903;SDS011;23738;50.422;18.758;2024-02-16T18:03:40;67.20;;;27.70;;
37903;SDS011;23738;50.422;18.758;2024-02-16T18:06:09;62.40;;;28.00;;
37903;SDS011;23738;50.422;18.758;2024-02-16T18:08:39;64.80;;;28.90;;
37903;SDS011;23738;50.422;18.758;2024-02-16T18:11:09;62.90;;;27.40;;
37903;SDS011;23738;50.422;18.758;2024-02-16T18:13:38;66.50;;;29.80;;
37903;SDS011;23738;50.422;18.758;2024-02-16T18:17:05;47.40;;;23.30;;
37903;SDS011;23738;50.422;18.758;2024-02-16T18:20:53;59.20;;;28.10;;
37903;SDS011;23738;50.422;18.758;2024-02-16T18:27:47;46.30;;;20.90;;
37903;SDS011;23738;50.422;18.758;2024-02-16T18:31:17;58.10;;;23.30;;
37903;SDS011;23738;50.422;18.758;2024-02-16T18:34:46;42.10;;;20.90;;